sensor_id;sensor_type;location;lat;lon;timestamp;pressure;altitude;pressure_sealevel;temperature;humidity
10638;BME280;47007;49.252;8.904;2022-07-05T00:00:08;100125.31;;;17.32;100.00
10638;BME280;47007;49.252;8.904;2022-07-05T00:02:38;100121.59;;;17.33;100.00
10638;BME280;47007;49.252;8.904;2022-07-05T00:05:06;100090.03;;;17.16;100.00
10638;BME280;47007;49.252;8.904;2022-07-05T00:07:32;100119.13;;;17.31;100.00
10638;BME280;47007;49.252;8.904;2022-07-05T00:09:59;100111.00;;;17.19;100.00
10638;BME280;47007;49.252;8.904;2022-07-05T00:12:29;100124.22;;;17.14;100.00
10638;BME280;47007;49.252;8.904;2022-07-05T00:14:59;100120.22;;;16.99;100.00
10638;BME280;47007;49.252;8.904;2022-07-05T00:17:27;100123.94;;;16.98;100.00
10638;BME280;47007;49.252;8.904;2022-07-05T00:19:53;100129.81;;;16.81;100.00
10638;BME280;47007;49.252;8.904;2022-07-05T00:22:20;100129.31;;;16.66;100.00
10638;BME280;47007;49.252;8.904;2022-07-05T00:24:52;100084.91;;;16.45;100.00
10638;BME280;47007;49.252;8.904;2022-07-05T00:27:19;100103.38;;;16.67;100.00
10638;BME280;47007;49.252;8.904;2022-07-05T00:29:46;100126.09;;;16.82;100.00
10638;BME280;47007;49.252;8.904;2022-07-05T00:32:13;100119.63;;;16.65;100.00
10638;BME280;47007;49.252;8.904;2022-07-05T00:34:39;100120.81;;;16.69;100.00
10638;BME280;47007;49.252;8.904;2022-07-05T00:37:07;100118.53;;;16.79;100.00
10638;BME280;47007;49.252;8.904;2022-07-05T00:39:34;100121.66;;;16.70;100.00
10638;BME280;47007;49.252;8.904;2022-07-05T00:42:01;100114.75;;;16.49;100.00
10638;BME280;47007;49.252;8.904;2022-07-05T00:44:30;100101.31;;;16.24;100.00
10638;BME280;47007;49.252;8.904;2022-07-05T00:46:58;100028.91;;;15.74;100.00
10638;BME280;47007;49.252;8.904;2022-07-05T00:49:25;100129.22;;;16.35;100.00
10638;BME280;47007;49.252;8.904;2022-07-05T00:51:52;100122.78;;;16.49;100.00
10638;BME280;47007;49.252;8.904;2022-07-05T00:54:39;100120.28;;;16.54;100.00
10638;BME280;47007;49.252;8.904;2022-07-05T00:57:09;100099.56;;;16.43;100.00
10638;BME280;47007;49.252;8.904;2022-07-05T00:59:36;100116.13;;;16.58;100.00
10638;BME280;47007;49.252;8.904;2022-07-05T01:02:02;100119.38;;;16.73;100.00
10638;BME280;47007;49.252;8.904;2022-07-05T01:04:29;100120.31;;;16.85;100.00
10638;BME280;47007;49.252;8.904;2022-07-05T01:06:56;100136.25;;;16.74;100.00
10638;BME280;47007;49.252;8.904;2022-07-05T01:09:24;100141.94;;;16.46;100.00
10638;BME280;47007;49.252;8.904;2022-07-05T01:11:51;100138.47;;;16.39;100.00
10638;BME280;47007;49.252;8.904;2022-07-05T01:14:21;100096.38;;;16.21;100.00
10638;BME280;47007;49.252;8.904;2022-07-05T01:16:50;100131.22;;;16.46;100.00
10638;BME280;47007;49.252;8.904;2022-07-05T01:19:17;100119.78;;;16.32;100.00
10638;BME280;47007;49.252;8.904;2022-07-05T01:21:47;100129.00;;;16.36;100.00
10638;BME280;47007;49.252;8.904;2022-07-05T01:24:16;100135.09;;;16.19;100.00
10638;BME280;47007;49.252;8.904;2022-07-05T01:26:49;100110.28;;;15.85;100.00
10638;BME280;47007;49.252;8.904;2022-07-05T01:29:17;100133.69;;;15.96;100.00
10638;BME280;47007;49.252;8.904;2022-07-05T01:31:44;100124.03;;;16.02;100.00
10638;BME280;47007;49.252;8.904;2022-07-05T01:34:11;100129.63;;;15.94;100.00
10638;BME280;47007;49.252;8.904;2022-07-05T01:36:38;100134.56;;;15.84;100.00
10638;BME280;47007;49.252;8.904;2022-07-05T01:39:06;100129.84;;;15.72;100.00
10638;BME280;47007;49.252;8.904;2022-07-05T01:41:34;100145.91;;;15.59;100.00
10638;BME280;47007;49.252;8.904;2022-07-05T01:44:02;100145.28;;;15.51;100.00
10638;BME280;47007;49.252;8.904;2022-07-05T01:46:31;100135.63;;;15.36;100.00
10638;BME280;47007;49.252;8.904;2022-07-05T01:49:06;100150.41;;;15.45;100.00
10638;BME280;47007;49.252;8.904;2022-07-05T01:51:39;100153.94;;;15.66;100.00
10638;BME280;47007;49.252;8.904;2022-07-05T01:54:07;100129.06;;;15.65;100.00
10638;BME280;47007;49.252;8.904;2022-07-05T01:56:37;100146.91;;;15.78;100.00
10638;BME280;47007;49.252;8.904;2022-07-05T01:59:05;100118.78;;;15.69;100.00
10638;BME280;47007;49.252;8.904;2022-07-05T02:01:37;100147.09;;;15.83;100.00
10638;BME280;47007;49.252;8.904;2022-07-05T02:04:06;100140.75;;;15.71;100.00
10638;BME280;47007;49.252;8.904;2022-07-05T02:06:34;100140.97;;;15.63;100.00
10638;BME280;47007;49.252;8.904;2022-07-05T02:09:04;100137.69;;;15.67;100.00
10638;BME280;47007;49.252;8.904;2022-07-05T02:11:33;100123.28;;;15.75;100.00
10638;BME280;47007;49.252;8.904;2022-07-05T02:14:00;100104.38;;;15.63;100.00
10638;BME280;47007;49.252;8.904;2022-07-05T02:16:31;100130.28;;;15.63;100.00
10638;BME280;47007;49.252;8.904;2022-07-05T02:18:57;100117.13;;;15.48;100.00
10638;BME280;47007;49.252;8.904;2022-07-05T02:21:26;100112.63;;;15.42;100.00
10638;BME280;47007;49.252;8.904;2022-07-05T02:23:55;100139.72;;;15.45;100.00
10638;BME280;47007;49.252;8.904;2022-07-05T02:26:25;100140.78;;;15.44;100.00
10638;BME280;47007;49.252;8.904;2022-07-05T02:28:52;100135.81;;;15.48;100.00
10638;BME280;47007;49.252;8.904;2022-07-05T02:31:19;100151.25;;;15.39;100.00
10638;BME280;47007;49.252;8.904;2022-07-05T02:33:50;100147.16;;;15.30;100.00
10638;BME280;47007;49.252;8.904;2022-07-05T02:36:20;100146.09;;;15.38;100.00
10638;BME280;47007;49.252;8.904;2022-07-05T02:38:47;100138.94;;;15.32;100.00
10638;BME280;47007;49.252;8.904;2022-07-05T02:41:14;100150.63;;;15.18;100.00
10638;BME280;47007;49.252;8.904;2022-07-05T02:43:44;100155.97;;;15.11;100.00
10638;BME280;47007;49.252;8.904;2022-07-05T02:46:13;100118.16;;;14.88;100.00
10638;BME280;47007;49.252;8.904;2022-07-05T02:48:40;100144.25;;;15.12;100.00
10638;BME280;47007;49.252;8.904;2022-07-05T02:51:07;100039.31;;;14.59;100.00
10638;BME280;47007;49.252;8.904;2022-07-05T02:53:35;100123.31;;;15.16;100.00
10638;BME280;47007;49.252;8.904;2022-07-05T02:56:04;100157.81;;;15.50;100.00
10638;BME280;47007;49.252;8.904;2022-07-05T02:58:31;100131.94;;;15.37;100.00
10638;BME280;47007;49.252;8.904;2022-07-05T03:00:59;100154.72;;;15.53;100.00
10638;BME280;47007;49.252;8.904;2022-07-05T03:03:30;100131.53;;;15.07;100.00
10638;BME280;47007;49.252;8.904;2022-07-05T03:05:58;100155.75;;;14.93;100.00
10638;BME280;47007;49.252;8.904;2022-07-05T03:08:25;100162.28;;;14.84;100.00
10638;BME280;47007;49.252;8.904;2022-07-05T03:10:53;100155.69;;;14.73;100.00
10638;BME280;47007;49.252;8.904;2022-07-05T03:13:19;100162.63;;;14.61;100.00
10638;BME280;47007;49.252;8.904;2022-07-05T03:15:46;100093.31;;;14.07;100.00
10638;BME280;47007;49.252;8.904;2022-07-05T03:18:17;100167.53;;;14.51;100.00
10638;BME280;47007;49.252;8.904;2022-07-05T03:20:44;100057.53;;;13.81;100.00
10638;BME280;47007;49.252;8.904;2022-07-05T03:23:11;100150.22;;;14.33;100.00
10638;BME280;47007;49.252;8.904;2022-07-05T03:25:43;100166.91;;;14.42;100.00
10638;BME280;47007;49.252;8.904;2022-07-05T03:28:11;100162.84;;;14.59;100.00
10638;BME280;47007;49.252;8.904;2022-07-05T03:30:40;100172.31;;;14.75;100.00
10638;BME280;47007;49.252;8.904;2022-07-05T03:33:07;100172.16;;;14.83;100.00
10638;BME280;47007;49.252;8.904;2022-07-05T03:35:36;100165.34;;;14.67;100.00
10638;BME280;47007;49.252;8.904;2022-07-05T03:38:03;100163.06;;;14.64;100.00
10638;BME280;47007;49.252;8.904;2022-07-05T03:40:30;100151.97;;;14.61;100.00
10638;BME280;47007;49.252;8.904;2022-07-05T03:42:57;100158.38;;;14.80;100.00
10638;BME280;47007;49.252;8.904;2022-07-05T03:45:25;100175.44;;;14.79;100.00
10638;BME280;47007;49.252;8.904;2022-07-05T03:47:57;100156.72;;;14.65;100.00
10638;BME280;47007;49.252;8.904;2022-07-05T03:50:38;100154.66;;;14.67;100.00
10638;BME280;47007;49.252;8.904;2022-07-05T03:53:05;100174.19;;;14.88;100.00
10638;BME280;47007;49.252;8.904;2022-07-05T03:55:32;100158.59;;;14.85;100.00
10638;BME280;47007;49.252;8.904;2022-07-05T03:57:58;100153.69;;;14.82;100.00
10638;BME280;47007;49.252;8.904;2022-07-05T04:00:25;100205.63;;;14.99;100.00
10638;BME280;47007;49.252;8.904;2022-07-05T04:03:00;100166.81;;;14.96;100.00
10638;BME280;47007;49.252;8.904;2022-07-05T04:05:27;100186.97;;;15.05;100.00
10638;BME280;47007;49.252;8.904;2022-07-05T04:07:55;100182.84;;;14.96;100.00
10638;BME280;47007;49.252;8.904;2022-07-05T04:10:28;100185.69;;;14.82;100.00
10638;BME280;47007;49.252;8.904;2022-07-05T04:12:54;100167.97;;;14.54;100.00
10638;BME280;47007;49.252;8.904;2022-07-05T04:15:24;100188.97;;;14.70;100.00
10638;BME280;47007;49.252;8.904;2022-07-05T04:17:55;100184.06;;;14.81;100.00
10638;BME280;47007;49.252;8.904;2022-07-05T04:20:25;100183.66;;;14.97;100.00
10638;BME280;47007;49.252;8.904;2022-07-05T04:22:52;100175.66;;;14.97;100.00
10638;BME280;47007;49.252;8.904;2022-07-05T04:25:21;100200.09;;;15.00;100.00
10638;BME280;47007;49.252;8.904;2022-07-05T04:28:07;100189.78;;;14.84;100.00
10638;BME280;47007;49.252;8.904;2022-07-05T04:30:36;100166.56;;;14.58;100.00
10638;BME280;47007;49.252;8.904;2022-07-05T04:33:04;100201.28;;;14.85;100.00
10638;BME280;47007;49.252;8.904;2022-07-05T04:35:31;100204.81;;;14.92;100.00
10638;BME280;47007;49.252;8.904;2022-07-05T04:37:58;100182.41;;;14.80;100.00
10638;BME280;47007;49.252;8.904;2022-07-05T04:40:26;100202.34;;;14.97;100.00
10638;BME280;47007;49.252;8.904;2022-07-05T04:42:53;100207.69;;;14.97;100.00
10638;BME280;47007;49.252;8.904;2022-07-05T04:45:19;100215.50;;;14.98;100.00
10638;BME280;47007;49.252;8.904;2022-07-05T04:47:47;100192.72;;;14.96;100.00
10638;BME280;47007;49.252;8.904;2022-07-05T04:50:14;100211.41;;;15.09;100.00
10638;BME280;47007;49.252;8.904;2022-07-05T04:52:42;100193.31;;;14.98;100.00
10638;BME280;47007;49.252;8.904;2022-07-05T04:55:09;100214.94;;;15.29;100.00
10638;BME280;47007;49.252;8.904;2022-07-05T04:57:40;100206.94;;;15.29;100.00
10638;BME280;47007;49.252;8.904;2022-07-05T05:00:09;100214.75;;;15.44;100.00
10638;BME280;47007;49.252;8.904;2022-07-05T05:02:36;100168.69;;;15.22;100.00
10638;BME280;47007;49.252;8.904;2022-07-05T05:05:03;100205.50;;;15.53;100.00
10638;BME280;47007;49.252;8.904;2022-07-05T05:07:30;100212.03;;;16.16;100.00
10638;BME280;47007;49.252;8.904;2022-07-05T05:10:05;100209.69;;;16.91;100.00
10638;BME280;47007;49.252;8.904;2022-07-05T05:12:32;100211.94;;;17.50;100.00
10638;BME280;47007;49.252;8.904;2022-07-05T05:14:59;100206.34;;;18.02;100.00
10638;BME280;47007;49.252;8.904;2022-07-05T05:17:27;100141.28;;;18.06;100.00
10638;BME280;47007;49.252;8.904;2022-07-05T05:19:59;100236.81;;;18.80;100.00
10638;BME280;47007;49.252;8.904;2022-07-05T05:22:26;100215.22;;;19.17;100.00
10638;BME280;47007;49.252;8.904;2022-07-05T05:24:53;100223.53;;;19.57;100.00
10638;BME280;47007;49.252;8.904;2022-07-05T05:27:20;100146.94;;;19.36;100.00
10638;BME280;47007;49.252;8.904;2022-07-05T05:29:46;100227.03;;;20.04;100.00
10638;BME280;47007;49.252;8.904;2022-07-05T05:32:13;100236.66;;;20.23;100.00
10638;BME280;47007;49.252;8.904;2022-07-05T05:34:40;100220.84;;;20.38;100.00
10638;BME280;47007;49.252;8.904;2022-07-05T05:37:07;100222.69;;;20.50;100.00
10638;BME280;47007;49.252;8.904;2022-07-05T05:39:34;100219.50;;;20.53;100.00
10638;BME280;47007;49.252;8.904;2022-07-05T05:42:01;100224.56;;;20.49;100.00
10638;BME280;47007;49.252;8.904;2022-07-05T05:44:28;100228.44;;;20.41;100.00
10638;BME280;47007;49.252;8.904;2022-07-05T05:46:54;100213.94;;;20.19;100.00
10638;BME280;47007;49.252;8.904;2022-07-05T05:49:21;100219.78;;;20.16;100.00
10638;BME280;47007;49.252;8.904;2022-07-05T05:51:48;100220.03;;;20.15;100.00
10638;BME280;47007;49.252;8.904;2022-07-05T05:54:15;100212.78;;;20.03;100.00
10638;BME280;47007;49.252;8.904;2022-07-05T05:56:41;100245.19;;;19.97;100.00
10638;BME280;47007;49.252;8.904;2022-07-05T05:59:08;100224.38;;;19.92;100.00
10638;BME280;47007;49.252;8.904;2022-07-05T06:01:35;100155.09;;;19.41;100.00
10638;BME280;47007;49.252;8.904;2022-07-05T06:04:01;100226.97;;;19.76;100.00
10638;BME280;47007;49.252;8.904;2022-07-05T06:06:28;100207.28;;;19.52;100.00
10638;BME280;47007;49.252;8.904;2022-07-05T06:08:55;100239.66;;;19.57;100.00
10638;BME280;47007;49.252;8.904;2022-07-05T06:11:22;100236.28;;;19.50;100.00
10638;BME280;47007;49.252;8.904;2022-07-05T06:13:49;100209.34;;;19.38;100.00
10638;BME280;47007;49.252;8.904;2022-07-05T06:16:15;100238.97;;;19.50;100.00
10638;BME280;47007;49.252;8.904;2022-07-05T06:18:42;100244.03;;;19.28;100.00
10638;BME280;47007;49.252;8.904;2022-07-05T06:21:09;100232.63;;;19.02;100.00
10638;BME280;47007;49.252;8.904;2022-07-05T06:23:35;100240.50;;;19.16;100.00
10638;BME280;47007;49.252;8.904;2022-07-05T06:26:02;100249.28;;;19.34;100.00
10638;BME280;47007;49.252;8.904;2022-07-05T06:28:30;100221.22;;;19.30;100.00
10638;BME280;47007;49.252;8.904;2022-07-05T06:30:58;100243.88;;;19.53;100.00
10638;BME280;47007;49.252;8.904;2022-07-05T06:33:25;100252.44;;;19.73;100.00
10638;BME280;47007;49.252;8.904;2022-07-05T06:35:51;100218.28;;;19.62;100.00
10638;BME280;47007;49.252;8.904;2022-07-05T06:38:18;100260.88;;;20.00;100.00
10638;BME280;47007;49.252;8.904;2022-07-05T06:40:45;100259.34;;;20.04;100.00
10638;BME280;47007;49.252;8.904;2022-07-05T06:43:13;100268.22;;;19.93;100.00
10638;BME280;47007;49.252;8.904;2022-07-05T06:46:00;100263.56;;;20.00;100.00
10638;BME280;47007;49.252;8.904;2022-07-05T06:48:27;100269.88;;;20.17;100.00
10638;BME280;47007;49.252;8.904;2022-07-05T06:50:54;100235.59;;;20.36;100.00
10638;BME280;47007;49.252;8.904;2022-07-05T06:53:20;100250.41;;;20.62;100.00
10638;BME280;47007;49.252;8.904;2022-07-05T06:55:47;100267.50;;;20.96;100.00
10638;BME280;47007;49.252;8.904;2022-07-05T06:58:22;100272.03;;;21.19;100.00
10638;BME280;47007;49.252;8.904;2022-07-05T07:00:49;100266.63;;;21.19;100.00
10638;BME280;47007;49.252;8.904;2022-07-05T07:03:36;100270.56;;;21.28;100.00
10638;BME280;47007;49.252;8.904;2022-07-05T07:06:23;100263.22;;;21.40;100.00
10638;BME280;47007;49.252;8.904;2022-07-05T07:08:50;100264.47;;;21.66;100.00
10638;BME280;47007;49.252;8.904;2022-07-05T07:11:35;100268.97;;;21.94;100.00
10638;BME280;47007;49.252;8.904;2022-07-05T07:14:02;100237.34;;;22.06;100.00
10638;BME280;47007;49.252;8.904;2022-07-05T07:16:28;100261.06;;;22.42;100.00
10638;BME280;47007;49.252;8.904;2022-07-05T07:18:56;100274.03;;;22.62;100.00
10638;BME280;47007;49.252;8.904;2022-07-05T07:21:41;100227.00;;;22.41;97.25
10638;BME280;47007;49.252;8.904;2022-07-05T07:24:11;100268.63;;;22.62;91.97
10638;BME280;47007;49.252;8.904;2022-07-05T07:26:38;100272.13;;;22.63;92.69
10638;BME280;47007;49.252;8.904;2022-07-05T07:29:24;100270.06;;;22.91;96.67
10638;BME280;47007;49.252;8.904;2022-07-05T07:31:51;100265.84;;;23.27;93.01
10638;BME280;47007;49.252;8.904;2022-07-05T07:34:17;100272.97;;;23.60;88.18
10638;BME280;47007;49.252;8.904;2022-07-05T07:36:44;100270.97;;;23.83;84.31
10638;BME280;47007;49.252;8.904;2022-07-05T07:39:11;100274.00;;;23.91;80.64
10638;BME280;47007;49.252;8.904;2022-07-05T07:41:38;100269.41;;;23.92;80.69
10638;BME280;47007;49.252;8.904;2022-07-05T07:44:05;100259.41;;;23.92;80.87
10638;BME280;47007;49.252;8.904;2022-07-05T07:46:31;100268.25;;;24.20;76.19
10638;BME280;47007;49.252;8.904;2022-07-05T07:48:58;100265.94;;;24.33;71.87
10638;BME280;47007;49.252;8.904;2022-07-05T07:51:25;100248.41;;;24.09;67.28
10638;BME280;47007;49.252;8.904;2022-07-05T07:53:52;100264.28;;;24.32;71.70
10638;BME280;47007;49.252;8.904;2022-07-05T07:56:27;100250.88;;;24.63;67.15
10638;BME280;47007;49.252;8.904;2022-07-05T07:58:54;100240.03;;;24.63;66.64
10638;BME280;47007;49.252;8.904;2022-07-05T08:01:21;100250.63;;;24.75;62.41
10638;BME280;47007;49.252;8.904;2022-07-05T08:03:48;100249.81;;;24.74;62.41
10638;BME280;47007;49.252;8.904;2022-07-05T08:06:15;100249.06;;;24.84;60.20
10638;BME280;47007;49.252;8.904;2022-07-05T08:08:43;100254.53;;;24.99;61.97
10638;BME280;47007;49.252;8.904;2022-07-05T08:11:12;100246.84;;;24.70;57.16
10638;BME280;47007;49.252;8.904;2022-07-05T08:13:39;100250.22;;;25.03;60.69
10638;BME280;47007;49.252;8.904;2022-07-05T08:16:09;100167.78;;;25.04;57.54
10638;BME280;47007;49.252;8.904;2022-07-05T08:18:36;100250.84;;;25.56;55.87
10638;BME280;47007;49.252;8.904;2022-07-05T08:21:22;100233.16;;;25.48;56.21
10638;BME280;47007;49.252;8.904;2022-07-05T08:23:58;100251.41;;;25.83;59.34
10638;BME280;47007;49.252;8.904;2022-07-05T08:26:26;100253.78;;;26.20;58.23
10638;BME280;47007;49.252;8.904;2022-07-05T08:28:54;100230.69;;;26.28;56.54
10638;BME280;47007;49.252;8.904;2022-07-05T08:31:36;100247.25;;;26.31;57.19
10638;BME280;47007;49.252;8.904;2022-07-05T08:34:04;100232.91;;;25.95;56.21
10638;BME280;47007;49.252;8.904;2022-07-05T08:36:31;100239.06;;;26.21;57.94
10638;BME280;47007;49.252;8.904;2022-07-05T08:38:58;100216.56;;;26.16;56.46
10638;BME280;47007;49.252;8.904;2022-07-05T08:41:25;100243.69;;;26.26;56.85
10638;BME280;47007;49.252;8.904;2022-07-05T08:43:52;100241.94;;;26.65;58.49
10638;BME280;47007;49.252;8.904;2022-07-05T08:46:19;100214.16;;;26.78;56.06
10638;BME280;47007;49.252;8.904;2022-07-05T08:48:48;100221.94;;;27.00;55.02
10638;BME280;47007;49.252;8.904;2022-07-05T08:51:19;100161.72;;;26.68;53.84
10638;BME280;47007;49.252;8.904;2022-07-05T08:53:52;100232.94;;;27.24;53.25
10638;BME280;47007;49.252;8.904;2022-07-05T08:56:19;100222.59;;;27.21;51.52
10638;BME280;47007;49.252;8.904;2022-07-05T08:59:06;100230.91;;;27.40;49.72
10638;BME280;47007;49.252;8.904;2022-07-05T09:01:33;100229.66;;;27.27;50.52
10638;BME280;47007;49.252;8.904;2022-07-05T09:04:04;100234.13;;;27.08;50.04
10638;BME280;47007;49.252;8.904;2022-07-05T09:06:32;100231.50;;;26.93;50.24
10638;BME280;47007;49.252;8.904;2022-07-05T09:09:03;100208.66;;;26.89;50.36
10638;BME280;47007;49.252;8.904;2022-07-05T09:11:41;100231.31;;;27.57;51.69
10638;BME280;47007;49.252;8.904;2022-07-05T09:14:24;100237.59;;;27.58;47.45
10638;BME280;47007;49.252;8.904;2022-07-05T09:16:56;100223.19;;;27.52;48.82
10638;BME280;47007;49.252;8.904;2022-07-05T09:19:23;100228.00;;;27.26;48.37
10638;BME280;47007;49.252;8.904;2022-07-05T09:22:00;100228.25;;;27.69;48.35
10638;BME280;47007;49.252;8.904;2022-07-05T09:24:28;100226.13;;;27.61;48.16
10638;BME280;47007;49.252;8.904;2022-07-05T09:27:02;100218.63;;;28.05;48.55
10638;BME280;47007;49.252;8.904;2022-07-05T09:29:30;100227.41;;;28.50;47.57
10638;BME280;47007;49.252;8.904;2022-07-05T09:32:25;100225.72;;;28.73;47.27
10638;BME280;47007;49.252;8.904;2022-07-05T09:34:51;100207.66;;;28.58;45.57
10638;BME280;47007;49.252;8.904;2022-07-05T09:37:18;100221.44;;;27.95;46.26
10638;BME280;47007;49.252;8.904;2022-07-05T09:39:45;100225.47;;;27.74;47.00
10638;BME280;47007;49.252;8.904;2022-07-05T09:42:22;100170.41;;;27.77;46.64
10638;BME280;47007;49.252;8.904;2022-07-05T09:44:54;100198.81;;;28.23;46.84
10638;BME280;47007;49.252;8.904;2022-07-05T09:47:23;100225.94;;;29.00;45.25
10638;BME280;47007;49.252;8.904;2022-07-05T09:49:51;100203.72;;;29.07;42.75
10638;BME280;47007;49.252;8.904;2022-07-05T09:52:42;100208.06;;;28.89;41.42
10638;BME280;47007;49.252;8.904;2022-07-05T09:57:41;100219.78;;;29.27;43.03
10638;BME280;47007;49.252;8.904;2022-07-05T10:00:15;100205.63;;;29.57;40.78
10638;BME280;47007;49.252;8.904;2022-07-05T10:02:43;100215.22;;;29.87;40.98
10638;BME280;47007;49.252;8.904;2022-07-05T10:05:22;100215.47;;;30.32;41.10
10638;BME280;47007;49.252;8.904;2022-07-05T10:07:50;100225.69;;;30.67;39.34
10638;BME280;47007;49.252;8.904;2022-07-05T10:10:19;100213.91;;;29.85;39.51
10638;BME280;47007;49.252;8.904;2022-07-05T10:12:48;100207.53;;;29.43;40.46
10638;BME280;47007;49.252;8.904;2022-07-05T10:15:17;100226.09;;;29.60;40.52
10638;BME280;47007;49.252;8.904;2022-07-05T10:17:50;100225.72;;;29.80;40.73
10638;BME280;47007;49.252;8.904;2022-07-05T10:20:25;100210.63;;;29.69;38.66
10638;BME280;47007;49.252;8.904;2022-07-05T10:22:56;100210.69;;;29.50;39.08
10638;BME280;47007;49.252;8.904;2022-07-05T10:25:31;100207.84;;;29.55;40.51
10638;BME280;47007;49.252;8.904;2022-07-05T10:27:58;100216.44;;;29.49;40.02
10638;BME280;47007;49.252;8.904;2022-07-05T10:30:25;100231.00;;;29.07;40.20
10638;BME280;47007;49.252;8.904;2022-07-05T10:32:52;100219.88;;;29.41;39.99
10638;BME280;47007;49.252;8.904;2022-07-05T10:35:19;100214.34;;;29.92;39.43
10638;BME280;47007;49.252;8.904;2022-07-05T10:37:50;100211.94;;;30.59;38.68
10638;BME280;47007;49.252;8.904;2022-07-05T10:40:20;100211.63;;;31.10;38.83
10638;BME280;47007;49.252;8.904;2022-07-05T10:42:58;100214.06;;;31.34;38.23
10638;BME280;47007;49.252;8.904;2022-07-05T10:45:33;100216.00;;;30.61;38.29
10638;BME280;47007;49.252;8.904;2022-07-05T10:48:13;100220.56;;;30.39;37.66
10638;BME280;47007;49.252;8.904;2022-07-05T10:50:47;100219.81;;;30.19;40.00
10638;BME280;47007;49.252;8.904;2022-07-05T10:58:38;100208.63;;;30.84;39.28
10638;BME280;47007;49.252;8.904;2022-07-05T11:03:40;100214.56;;;31.58;37.28
10638;BME280;47007;49.252;8.904;2022-07-05T11:06:08;100205.53;;;31.35;37.48
10638;BME280;47007;49.252;8.904;2022-07-05T11:11:24;100208.50;;;30.40;38.42
10638;BME280;47007;49.252;8.904;2022-07-05T11:13:52;100196.91;;;29.88;38.13
10638;BME280;47007;49.252;8.904;2022-07-05T11:16:32;100208.50;;;30.26;37.74
10638;BME280;47007;49.252;8.904;2022-07-05T11:19:11;100204.72;;;30.49;37.53
10638;BME280;47007;49.252;8.904;2022-07-05T11:21:40;100205.41;;;30.82;36.29
10638;BME280;47007;49.252;8.904;2022-07-05T11:24:27;100201.34;;;31.60;35.88
10638;BME280;47007;49.252;8.904;2022-07-05T11:26:58;100186.94;;;30.88;34.66
10638;BME280;47007;49.252;8.904;2022-07-05T11:29:41;100208.91;;;30.60;35.80
10638;BME280;47007;49.252;8.904;2022-07-05T11:35:18;100187.94;;;30.01;35.49
10638;BME280;47007;49.252;8.904;2022-07-05T11:37:58;100205.00;;;29.93;35.47
10638;BME280;47007;49.252;8.904;2022-07-05T11:40:46;100186.41;;;30.22;33.96
10638;BME280;47007;49.252;8.904;2022-07-05T11:43:13;100178.59;;;30.57;35.11
10638;BME280;47007;49.252;8.904;2022-07-05T11:45:40;100165.19;;;30.69;34.65
10638;BME280;47007;49.252;8.904;2022-07-05T11:48:14;100178.56;;;30.70;34.28
10638;BME280;47007;49.252;8.904;2022-07-05T11:50:41;100184.44;;;31.36;34.49
10638;BME280;47007;49.252;8.904;2022-07-05T11:53:08;100172.09;;;31.78;33.53
10638;BME280;47007;49.252;8.904;2022-07-05T11:55:38;100181.03;;;31.84;33.60
10638;BME280;47007;49.252;8.904;2022-07-05T11:58:09;100147.34;;;31.61;33.32
10638;BME280;47007;49.252;8.904;2022-07-05T12:00:37;100179.53;;;30.39;33.70
10638;BME280;47007;49.252;8.904;2022-07-05T12:03:11;100125.69;;;29.98;34.35
10638;BME280;47007;49.252;8.904;2022-07-05T12:05:39;100167.47;;;30.53;34.99
10638;BME280;47007;49.252;8.904;2022-07-05T12:08:08;100170.53;;;30.88;34.53
10638;BME280;47007;49.252;8.904;2022-07-05T12:10:36;100163.69;;;30.49;33.49
10638;BME280;47007;49.252;8.904;2022-07-05T12:13:46;100174.66;;;30.63;33.22
10638;BME280;47007;49.252;8.904;2022-07-05T12:16:14;100156.56;;;29.98;34.42
10638;BME280;47007;49.252;8.904;2022-07-05T12:21:15;100139.78;;;30.55;34.72
10638;BME280;47007;49.252;8.904;2022-07-05T12:23:43;100143.47;;;31.08;34.65
10638;BME280;47007;49.252;8.904;2022-07-05T12:26:12;100150.56;;;31.32;33.85
10638;BME280;47007;49.252;8.904;2022-07-05T12:28:40;100156.00;;;30.65;35.10
10638;BME280;47007;49.252;8.904;2022-07-05T12:31:37;100156.31;;;30.50;33.89
10638;BME280;47007;49.252;8.904;2022-07-05T12:34:17;100148.50;;;30.57;33.66
10638;BME280;47007;49.252;8.904;2022-07-05T12:36:44;100167.53;;;30.48;33.98
10638;BME280;47007;49.252;8.904;2022-07-05T12:39:11;100153.16;;;30.92;34.63
10638;BME280;47007;49.252;8.904;2022-07-05T12:41:42;100152.91;;;31.47;33.47
10638;BME280;47007;49.252;8.904;2022-07-05T12:44:09;100141.28;;;31.64;33.42
10638;BME280;47007;49.252;8.904;2022-07-05T12:46:40;100150.91;;;31.61;33.96
10638;BME280;47007;49.252;8.904;2022-07-05T12:49:09;100141.91;;;31.38;33.69
10638;BME280;47007;49.252;8.904;2022-07-05T12:51:42;100131.31;;;30.79;33.73
10638;BME280;47007;49.252;8.904;2022-07-05T12:54:20;100137.59;;;31.15;33.96
10638;BME280;47007;49.252;8.904;2022-07-05T12:57:22;100148.03;;;31.35;34.31
10638;BME280;47007;49.252;8.904;2022-07-05T13:00:08;100134.69;;;30.98;33.98
10638;BME280;47007;49.252;8.904;2022-07-05T13:02:38;100142.00;;;31.25;33.85
10638;BME280;47007;49.252;8.904;2022-07-05T13:05:19;100148.22;;;30.81;34.14
10638;BME280;47007;49.252;8.904;2022-07-05T13:07:49;100123.72;;;30.76;33.90
10638;BME280;47007;49.252;8.904;2022-07-05T13:10:24;100124.91;;;30.83;34.71
10638;BME280;47007;49.252;8.904;2022-07-05T13:12:51;100148.88;;;31.00;34.08
10638;BME280;47007;49.252;8.904;2022-07-05T13:15:18;100141.84;;;31.52;34.62
10638;BME280;47007;49.252;8.904;2022-07-05T13:17:45;100147.38;;;32.00;33.77